createdAt,value
2023-08-20T00:01:26.035Z,101999.78
2023-08-20T00:03:54.973Z,101986.84
2023-08-20T00:06:24.229Z,101996.69
2023-08-20T00:08:52.434Z,101970.66
2023-08-20T00:11:21.484Z,101992.16
2023-08-20T00:13:49.223Z,101992.25
2023-08-20T00:16:17.308Z,102000.59
2023-08-20T00:18:45.513Z,101999.91
2023-08-20T00:21:13.695Z,102002.38
2023-08-20T00:23:41.953Z,102001.19
2023-08-20T00:26:10.253Z,101994.94
2023-08-20T00:28:39.832Z,101991.78
2023-08-20T00:31:07.555Z,101995.69
2023-08-20T00:33:35.297Z,101989.38
2023-08-20T00:36:03.570Z,101998.59
2023-08-20T00:38:31.462Z,102012.84
2023-08-20T00:40:59.173Z,102010.38
2023-08-20T00:43:26.894Z,102020.63
2023-08-20T00:45:55.967Z,102014.31
2023-08-20T00:48:23.770Z,102019.69
2023-08-20T00:50:51.557Z,102018.22
2023-08-20T00:53:20.015Z,102005.41
2023-08-20T00:55:47.957Z,102018.69
2023-08-20T00:58:16.625Z,102022.41
2023-08-20T01:00:44.356Z,102013.59
2023-08-20T01:03:13.423Z,102019.38
2023-08-20T01:05:48.974Z,102011.09
2023-08-20T01:08:29.433Z,102019.53
2023-08-20T01:11:03.106Z,102017.16
2023-08-20T01:13:30.775Z,102016.13
2023-08-20T01:15:58.476Z,102015.66
2023-08-20T01:18:27.803Z,102017.50
2023-08-20T01:21:00.424Z,102014.22
2023-08-20T01:23:50.282Z,102020.25
2023-08-20T01:26:30.685Z,102020.38
2023-08-20T01:28:59.969Z,102022.09
2023-08-20T01:31:29.018Z,102012.88
2023-08-20T01:33:58.639Z,102004.56
2023-08-20T01:36:26.772Z,102013.81
2023-08-20T01:38:54.410Z,102016.09
2023-08-20T01:41:22.100Z,102020.66
2023-08-20T01:43:49.825Z,102018.44
2023-08-20T01:46:18.882Z,102013.59
2023-08-20T01:48:46.636Z,102017.66
2023-08-20T01:51:14.513Z,102021.88
2023-08-20T01:53:42.181Z,102022.00
2023-08-20T01:56:13.372Z,102015.56
2023-08-20T01:58:41.489Z,102014.31
2023-08-20T02:01:09.261Z,102011.44
2023-08-20T02:03:39.038Z,102010.75
2023-08-20T02:06:06.916Z,102011.19
2023-08-20T02:08:34.658Z,102016.91
2023-08-20T02:11:03.661Z,102029.06
2023-08-20T02:13:31.460Z,102034.00
2023-08-20T02:16:03.048Z,102030.91
2023-08-20T02:18:30.925Z,102035.78
2023-08-20T02:21:00.252Z,102026.91
2023-08-20T02:23:28.031Z,102025.75
2023-08-20T02:25:55.811Z,102034.47
2023-08-20T02:28:23.910Z,102022.56
2023-08-20T02:30:51.604Z,102029.84
2023-08-20T02:33:19.388Z,102033.34
2023-08-20T02:35:47.114Z,102024.25
2023-08-20T02:38:16.253Z,102026.34
2023-08-20T02:40:44.087Z,102029.13
2023-08-20T02:43:11.806Z,102021.91
2023-08-20T02:45:44.164Z,102028.59
2023-08-20T02:48:12.152Z,102026.59
2023-08-20T02:50:39.944Z,101988.00
2023-08-20T02:53:07.794Z,102035.84
2023-08-20T02:55:37.132Z,102049.84
2023-08-20T02:58:05.157Z,102049.44
2023-08-20T03:00:32.948Z,102054.44
2023-08-20T03:03:00.672Z,102062.09
2023-08-20T03:05:28.659Z,102062.16
2023-08-20T03:07:56.372Z,102071.66
2023-08-20T03:10:24.064Z,102070.53
2023-08-20T03:12:53.116Z,102064.34
2023-08-20T03:15:21.052Z,102071.25
2023-08-20T03:17:48.834Z,102052.56
2023-08-20T03:20:16.745Z,102060.31
2023-08-20T03:22:44.417Z,102061.38
2023-08-20T03:25:12.160Z,102068.47
2023-08-20T03:27:39.884Z,102068.72
2023-08-20T03:30:09.922Z,102072.84
2023-08-20T03:32:37.598Z,102075.59
2023-08-20T03:35:06.067Z,102075.28
2023-08-20T03:37:34.133Z,102080.63
2023-08-20T03:40:02.022Z,102089.09
2023-08-20T03:42:29.730Z,102083.94
2023-08-20T03:44:57.404Z,102097.78
2023-08-20T03:47:26.560Z,102102.34
2023-08-20T03:49:54.431Z,102104.63
2023-08-20T03:52:22.120Z,102103.00
2023-08-20T03:54:51.278Z,102107.88
2023-08-20T03:57:18.985Z,102104.78
2023-08-20T03:59:47.407Z,102109.19
2023-08-20T04:02:15.624Z,102114.72
2023-08-20T04:04:44.662Z,102113.19
2023-08-20T04:07:12.308Z,102101.94
2023-08-20T04:09:40.726Z,102107.38
2023-08-20T04:12:09.033Z,102103.91
2023-08-20T04:14:36.774Z,102101.44
2023-08-20T04:17:04.498Z,102099.09
2023-08-20T04:19:32.183Z,102106.25
2023-08-20T04:22:01.207Z,102109.50
2023-08-20T04:24:29.004Z,102106.16
2023-08-20T04:26:56.776Z,102100.94
2023-08-20T04:29:24.458Z,102108.22
2023-08-20T04:31:52.136Z,102105.78
2023-08-20T04:34:19.808Z,102115.66
2023-08-20T04:36:47.592Z,102108.94
2023-08-20T04:39:16.570Z,102110.22
2023-08-20T04:41:44.261Z,102109.50
2023-08-20T04:44:12.074Z,102112.13
2023-08-20T04:46:39.770Z,102112.66
2023-08-20T04:49:07.642Z,102113.72
2023-08-20T04:51:35.314Z,102106.53
2023-08-20T04:54:02.977Z,102110.06
2023-08-20T04:56:32.036Z,102112.16
2023-08-20T04:58:59.708Z,102094.72
2023-08-20T05:01:27.460Z,102104.38
2023-08-20T05:03:55.168Z,102106.88
2023-08-20T05:06:22.877Z,102098.09
2023-08-20T05:08:50.516Z,102105.25
2023-08-20T05:11:18.189Z,102116.72
2023-08-20T05:13:47.740Z,102091.97
2023-08-20T05:16:15.441Z,102105.53
2023-08-20T05:18:43.133Z,102097.69
2023-08-20T05:21:14.432Z,102082.84
2023-08-20T05:23:42.305Z,102085.16
2023-08-20T05:26:10.235Z,102086.63
2023-08-20T05:28:37.900Z,102068.69
2023-08-20T05:31:06.951Z,102021.94
2023-08-20T05:33:34.872Z,102067.88
2023-08-20T05:36:02.567Z,102044.75
2023-08-20T05:38:30.248Z,102029.41
2023-08-20T05:40:57.902Z,102029.88
2023-08-20T05:43:25.576Z,102020.22
2023-08-20T05:45:53.273Z,102012.34
2023-08-20T05:48:22.311Z,102015.94
2023-08-20T05:50:49.989Z,102034.50
2023-08-20T05:53:17.636Z,102050.44
2023-08-20T05:55:45.306Z,102054.91
2023-08-20T05:58:13.154Z,102052.47
2023-08-20T06:00:41.029Z,102064.41
2023-08-20T06:03:08.987Z,102051.06
2023-08-20T06:05:38.139Z,102057.44
2023-08-20T06:08:06.605Z,102047.66
2023-08-20T06:10:34.273Z,102053.50
2023-08-20T06:13:01.975Z,102055.06
2023-08-20T06:15:29.679Z,102064.94
2023-08-20T06:17:57.388Z,102064.19
2023-08-20T06:20:25.092Z,102064.50
2023-08-20T06:22:54.109Z,102081.28
2023-08-20T06:25:21.847Z,102079.94
2023-08-20T06:27:49.542Z,102075.97
2023-08-20T06:30:17.281Z,102079.00
2023-08-20T06:32:46.595Z,102077.75
2023-08-20T06:35:14.284Z,102086.31
2023-08-20T06:37:42.198Z,102107.44
2023-08-20T06:40:12.241Z,102104.31
2023-08-20T06:42:40.947Z,102100.81
2023-08-20T06:45:10.342Z,102113.00
2023-08-20T06:47:38.459Z,102105.84
2023-08-20T06:50:08.021Z,102105.81
2023-08-20T06:52:35.731Z,102100.25
2023-08-20T06:55:03.535Z,102106.47
2023-08-20T06:57:32.787Z,102101.81
2023-08-20T07:00:00.634Z,102098.53
2023-08-20T07:02:28.376Z,102090.41
2023-08-20T07:04:56.099Z,102092.88
2023-08-20T07:07:24.283Z,102098.75
2023-08-20T07:09:51.947Z,102106.59
2023-08-20T07:12:19.621Z,102087.38
2023-08-20T07:14:48.610Z,102081.03
2023-08-20T07:17:16.267Z,102090.47
2023-08-20T07:19:43.980Z,102084.38
2023-08-20T07:22:11.643Z,102087.34
2023-08-20T07:24:39.366Z,102089.75
2023-08-20T07:27:12.182Z,102103.25
2023-08-20T07:29:39.915Z,102105.16
2023-08-20T07:32:09.104Z,102096.38
2023-08-20T07:34:36.757Z,102105.03
2023-08-20T07:37:06.050Z,102107.50
2023-08-20T07:39:33.743Z,102114.56
2023-08-20T07:42:01.467Z,102115.38
2023-08-20T07:44:29.483Z,102100.47
2023-08-20T07:46:57.186Z,102097.00
2023-08-20T07:49:26.287Z,102095.72
2023-08-20T07:51:55.532Z,102113.84
2023-08-20T07:54:23.274Z,102098.69
2023-08-20T07:56:50.926Z,102113.47
2023-08-20T07:59:18.570Z,102103.25
2023-08-20T08:01:46.343Z,102091.72
2023-08-20T08:04:14.032Z,102105.13
2023-08-20T08:06:43.098Z,102128.22
2023-08-20T08:09:20.218Z,102110.78
2023-08-20T08:11:47.884Z,102117.72
2023-08-20T08:14:15.671Z,102121.69
2023-08-20T08:16:43.368Z,102120.03
2023-08-20T08:19:11.073Z,102121.09
2023-08-20T08:21:38.846Z,102129.41
2023-08-20T08:24:08.191Z,102128.09
2023-08-20T08:26:36.664Z,102125.78
2023-08-20T08:29:04.808Z,102135.16
2023-08-20T08:31:32.660Z,102129.84
2023-08-20T08:34:00.425Z,102135.94
2023-08-20T08:36:28.066Z,102146.31
2023-08-20T08:38:56.981Z,102149.66
2023-08-20T08:41:28.115Z,102132.16
2023-08-20T08:43:57.339Z,102139.38
2023-08-20T08:46:26.386Z,102145.69
2023-08-20T08:48:54.745Z,102146.09
2023-08-20T08:51:22.444Z,102162.06
2023-08-20T08:53:50.151Z,102159.63
2023-08-20T08:56:17.787Z,102177.03
2023-08-20T08:58:46.999Z,102146.28
2023-08-20T09:01:15.588Z,102155.88
2023-08-20T09:03:43.740Z,102168.31
2023-08-20T09:06:12.122Z,102164.44
2023-08-20T09:08:40.234Z,102149.91
2023-08-20T09:11:07.971Z,102146.22
2023-08-20T09:13:37.434Z,102129.53
2023-08-20T09:16:07.784Z,102152.44
2023-08-20T09:18:40.326Z,102148.38
2023-08-20T09:21:09.504Z,102146.59
2023-08-20T09:23:37.387Z,102168.28
2023-08-20T09:26:06.269Z,102157.66
2023-08-20T09:28:43.187Z,102141.97
2023-08-20T09:31:12.316Z,102146.41
2023-08-20T09:33:51.694Z,102158.53
2023-08-20T09:36:20.377Z,102157.06
2023-08-20T09:38:50.605Z,102178.50
2023-08-20T09:41:19.735Z,102158.56
2023-08-20T09:43:50.725Z,102177.72
2023-08-20T09:46:22.496Z,102165.53
2023-08-20T09:48:52.788Z,102176.00
2023-08-20T09:51:23.885Z,102184.25
2023-08-20T09:54:00.938Z,102188.00
2023-08-20T09:56:30.471Z,102176.09
2023-08-20T09:58:59.699Z,102161.78
2023-08-20T10:01:29.573Z,102168.19
2023-08-20T10:03:58.238Z,102171.75
2023-08-20T10:06:26.830Z,102163.72
2023-08-20T10:08:55.910Z,102135.25
2023-08-20T10:11:23.771Z,102149.28
2023-08-20T10:13:51.904Z,102142.44
2023-08-20T10:16:22.057Z,102157.78
2023-08-20T10:18:51.585Z,102154.88
2023-08-20T10:21:19.286Z,102152.03
2023-08-20T10:23:51.112Z,102147.44
2023-08-20T10:26:19.970Z,102148.56
2023-08-20T10:28:47.636Z,102133.78
2023-08-20T10:31:18.332Z,102124.16
2023-08-20T10:33:56.142Z,102120.53
2023-08-20T10:36:29.001Z,102130.53
2023-08-20T10:38:58.022Z,102137.88
2023-08-20T10:41:29.679Z,102119.78
2023-08-20T10:43:59.998Z,102116.75
2023-08-20T10:46:31.166Z,102130.91
2023-08-20T10:49:01.234Z,102137.63
2023-08-20T10:51:30.187Z,102127.19
2023-08-20T10:54:08.884Z,102141.47
2023-08-20T10:56:41.894Z,102139.72
2023-08-20T10:59:10.891Z,102139.06
2023-08-20T11:01:39.489Z,102141.03
2023-08-20T11:04:09.368Z,102148.25
2023-08-20T11:06:37.097Z,102148.88
2023-08-20T11:09:06.735Z,102139.19
2023-08-20T11:11:34.781Z,102145.31
2023-08-20T11:14:08.823Z,102148.34
2023-08-20T11:16:37.338Z,102138.63
2023-08-20T11:19:09.565Z,102148.69
2023-08-20T11:21:40.567Z,102147.09
2023-08-20T11:24:08.978Z,102145.97
2023-08-20T11:26:37.770Z,102134.38
2023-08-20T11:29:07.778Z,102147.63
2023-08-20T11:31:35.502Z,102140.19
2023-08-20T11:34:04.058Z,102141.91
2023-08-20T11:36:32.316Z,102127.66
2023-08-20T11:39:01.518Z,102125.56
2023-08-20T11:41:29.511Z,102128.69
2023-08-20T11:43:57.348Z,102132.03
2023-08-20T11:46:26.189Z,102135.19
2023-08-20T11:49:05.392Z,102121.97
2023-08-20T11:51:38.855Z,102142.06
2023-08-20T11:54:09.903Z,102150.25
2023-08-20T11:56:39.702Z,102130.09
2023-08-20T11:59:07.454Z,102142.28
2023-08-20T12:01:35.268Z,102130.94
2023-08-20T12:04:04.050Z,102124.91
2023-08-20T12:06:32.524Z,102119.03
2023-08-20T12:09:00.489Z,102113.88
2023-08-20T12:11:30.375Z,102126.09
2023-08-20T12:13:58.743Z,102132.94
2023-08-20T12:16:26.962Z,102115.59
2023-08-20T12:18:55.034Z,102132.94
2023-08-20T12:21:22.731Z,102124.06
2023-08-20T12:23:50.710Z,102113.28
2023-08-20T12:26:19.217Z,102121.38
2023-08-20T12:28:48.286Z,102117.72
2023-08-20T12:31:16.712Z,102127.41
2023-08-20T12:33:44.445Z,102104.66
2023-08-20T12:36:12.119Z,102102.03
2023-08-20T12:38:39.919Z,102114.50
2023-08-20T12:41:07.670Z,102120.69
2023-08-20T12:43:35.432Z,102103.84
2023-08-20T12:46:04.626Z,102098.41
2023-08-20T12:48:32.414Z,102099.75
2023-08-20T12:51:00.383Z,102106.75
2023-08-20T12:53:28.170Z,102101.56
2023-08-20T12:55:55.931Z,102059.09
2023-08-20T12:58:25.089Z,102104.69
2023-08-20T13:00:52.786Z,102093.66
2023-08-20T13:03:22.471Z,102078.44
2023-08-20T13:05:50.702Z,102097.31
2023-08-20T13:08:18.962Z,102088.78
2023-08-20T13:10:52.481Z,102106.59
2023-08-20T13:13:22.921Z,102104.91
2023-08-20T13:15:51.346Z,102114.41
2023-08-20T13:18:25.741Z,102087.31
2023-08-20T13:20:54.622Z,102095.25
2023-08-20T13:23:22.511Z,102087.06
2023-08-20T13:25:50.174Z,102105.19
2023-08-20T13:28:18.972Z,102103.97
2023-08-20T13:30:46.800Z,102091.97
2023-08-20T13:33:14.844Z,102086.47
2023-08-20T13:35:44.068Z,102093.31
2023-08-20T13:38:11.958Z,102094.53
2023-08-20T13:40:39.678Z,102085.44
2023-08-20T13:43:07.400Z,102114.47
2023-08-20T13:45:35.091Z,102113.97
2023-08-20T13:48:02.871Z,102100.72
2023-08-20T13:50:31.026Z,102081.41
2023-08-20T13:53:01.660Z,102098.09
2023-08-20T13:55:32.149Z,102091.53
2023-08-20T13:57:59.886Z,102093.03
2023-08-20T14:00:27.694Z,102090.72
2023-08-20T14:02:55.514Z,102091.41
2023-08-20T14:05:23.274Z,102106.00
2023-08-20T14:07:50.938Z,102106.38
2023-08-20T14:10:19.959Z,102096.84
2023-08-20T14:12:47.643Z,102095.56
2023-08-20T14:15:15.844Z,102083.31
2023-08-20T14:17:43.553Z,102089.13
2023-08-20T14:20:12.619Z,102084.94
2023-08-20T14:22:40.589Z,102091.72
2023-08-20T14:25:09.249Z,102070.09
2023-08-20T14:27:38.400Z,102079.00
2023-08-20T14:30:08.979Z,102039.41
2023-08-20T14:32:40.053Z,102073.56
2023-08-20T14:35:09.261Z,102063.00
2023-08-20T14:37:36.903Z,102065.66
2023-08-20T14:40:07.640Z,102061.03
2023-08-20T14:42:35.894Z,102052.69
2023-08-20T14:45:06.402Z,102053.63
2023-08-20T14:47:34.145Z,102052.47
2023-08-20T14:50:01.906Z,102046.28
2023-08-20T14:52:29.611Z,102036.91
2023-08-20T14:54:57.293Z,102042.44
2023-08-20T14:57:26.330Z,102038.31
2023-08-20T14:59:59.437Z,102042.09
2023-08-20T15:02:28.641Z,102034.13
2023-08-20T15:04:56.374Z,102031.97
2023-08-20T15:07:24.845Z,102037.47
2023-08-20T15:09:52.637Z,102061.72
2023-08-20T15:12:20.450Z,102044.16
2023-08-20T15:14:48.095Z,102054.41
2023-08-20T15:17:15.741Z,102072.69
2023-08-20T15:19:45.075Z,102074.34
2023-08-20T15:22:13.181Z,102062.84
2023-08-20T15:24:40.797Z,102055.94
2023-08-20T15:27:08.888Z,102057.78
2023-08-20T15:29:39.092Z,102042.13
2023-08-20T15:32:07.186Z,102049.09
2023-08-20T15:34:34.851Z,102060.09
2023-08-20T15:37:04.875Z,102057.47
2023-08-20T15:39:34.969Z,102061.50
2023-08-20T15:42:02.901Z,102021.56
2023-08-20T15:44:30.620Z,102046.50
2023-08-20T15:46:58.359Z,102047.06
2023-08-20T15:49:28.257Z,102061.47
2023-08-20T15:51:56.024Z,102064.94
2023-08-20T15:54:26.626Z,102063.59
2023-08-20T15:56:54.679Z,102060.31
2023-08-20T15:59:22.613Z,102069.69
2023-08-20T16:01:50.660Z,102061.16
2023-08-20T16:04:18.405Z,102066.41
2023-08-20T16:06:46.174Z,102041.59
2023-08-20T16:09:13.926Z,102058.63
2023-08-20T16:11:42.992Z,102060.91
2023-08-20T16:14:11.357Z,102068.97
2023-08-20T16:16:39.633Z,102043.44
2023-08-20T16:19:07.395Z,102047.91
2023-08-20T16:21:35.429Z,102043.44
2023-08-20T16:24:05.272Z,102054.56
2023-08-20T16:26:34.832Z,102042.16
2023-08-20T16:29:04.524Z,102034.25
2023-08-20T16:31:32.415Z,102051.97
2023-08-20T16:34:00.078Z,102046.53
2023-08-20T16:36:27.760Z,102037.94
2023-08-20T16:38:55.705Z,102044.47
2023-08-20T16:41:23.404Z,102055.19
2023-08-20T16:43:51.138Z,102029.78
2023-08-20T16:46:20.175Z,102042.13
2023-08-20T16:48:47.857Z,102028.34
2023-08-20T16:51:15.564Z,102033.06
2023-08-20T16:53:43.274Z,102048.41
2023-08-20T16:56:10.976Z,102034.78
2023-08-20T16:58:38.679Z,102045.09
2023-08-20T17:01:06.896Z,102048.03
2023-08-20T17:03:35.933Z,102039.50
2023-08-20T17:06:05.334Z,102034.81
2023-08-20T17:08:33.224Z,102019.91
2023-08-20T17:11:07.874Z,102041.81
2023-08-20T17:13:36.831Z,102041.78
2023-08-20T17:16:05.636Z,102041.28
2023-08-20T17:18:33.892Z,102056.81
2023-08-20T17:21:03.636Z,102054.44
2023-08-20T17:23:33.415Z,102056.34
2023-08-20T17:26:01.188Z,102056.91
2023-08-20T17:28:29.160Z,102027.66
2023-08-20T17:30:57.076Z,102051.56
2023-08-20T17:33:25.187Z,102044.66
2023-08-20T17:35:52.878Z,102054.22
2023-08-20T17:38:23.084Z,102038.88
2023-08-20T17:40:50.773Z,102051.47
2023-08-20T17:43:18.638Z,102050.13
2023-08-20T17:45:46.395Z,102066.03
2023-08-20T17:48:16.100Z,102071.50
2023-08-20T17:50:44.082Z,102080.09
2023-08-20T17:53:11.791Z,102075.53
2023-08-20T17:55:40.858Z,102077.91
2023-08-20T17:58:08.975Z,102087.03
2023-08-20T18:00:36.659Z,102082.41
2023-08-20T18:03:05.148Z,102082.53
2023-08-20T18:05:33.338Z,102092.72
2023-08-20T18:08:02.177Z,102091.84
2023-08-20T18:10:29.962Z,102092.94
2023-08-20T18:12:59.513Z,102094.16
2023-08-20T18:15:28.071Z,102100.47
2023-08-20T18:17:55.929Z,102095.94
2023-08-20T18:20:24.074Z,102111.16
2023-08-20T18:22:51.715Z,102107.38
2023-08-20T18:25:19.463Z,102101.50
2023-08-20T18:27:47.229Z,102114.38
2023-08-20T18:30:17.477Z,102103.84
2023-08-20T18:32:45.114Z,102117.34
2023-08-20T18:35:13.162Z,102111.47
2023-08-20T18:37:40.909Z,102115.06
2023-08-20T18:40:11.552Z,102119.16
2023-08-20T18:42:39.964Z,102112.75
2023-08-20T18:45:09.313Z,102117.25
2023-08-20T18:47:38.468Z,102121.63
2023-08-20T18:50:07.189Z,102123.41
2023-08-20T18:52:35.127Z,102121.97
2023-08-20T18:55:03.145Z,102124.19
2023-08-20T18:57:30.795Z,102131.59
2023-08-20T19:00:00.327Z,102133.78
2023-08-20T19:02:28.121Z,102141.88
2023-08-20T19:04:57.455Z,102139.56
2023-08-20T19:07:26.497Z,102145.28
2023-08-20T19:09:56.398Z,102151.31
2023-08-20T19:12:24.051Z,102154.72
2023-08-20T19:14:51.914Z,102151.53
2023-08-20T19:17:19.560Z,102155.59
2023-08-20T19:19:47.231Z,102135.34
2023-08-20T19:22:17.164Z,102141.94
2023-08-20T19:24:44.827Z,102157.59
2023-08-20T19:27:12.897Z,102157.97
2023-08-20T19:29:40.581Z,102160.81
2023-08-20T19:32:08.416Z,102168.69
2023-08-20T19:34:36.096Z,102172.19
2023-08-20T19:37:04.680Z,102163.34
2023-08-20T19:39:33.757Z,102155.25
2023-08-20T19:42:02.542Z,102169.97
2023-08-20T19:44:30.252Z,102166.53
2023-08-20T19:46:57.980Z,102184.09
2023-08-20T19:49:25.653Z,102183.28
2023-08-20T19:51:53.342Z,102177.81
2023-08-20T19:54:22.457Z,102181.75
2023-08-20T19:56:51.800Z,102179.69
2023-08-20T19:59:19.910Z,102186.25
2023-08-20T20:01:48.690Z,102139.13
2023-08-20T20:04:17.093Z,102185.56
2023-08-20T20:06:45.250Z,102174.81
2023-08-20T20:09:13.499Z,102177.13
2023-08-20T20:11:41.170Z,102183.09
2023-08-20T20:14:10.257Z,102188.34
2023-08-20T20:16:38.219Z,102181.69
2023-08-20T20:19:05.921Z,102188.22
2023-08-20T20:21:33.601Z,102182.66
2023-08-20T20:24:01.336Z,102187.84
2023-08-20T20:26:28.967Z,102187.19
2023-08-20T20:28:57.351Z,102173.13
2023-08-20T20:31:26.658Z,102182.72
2023-08-20T20:33:54.409Z,102181.50
2023-08-20T20:36:22.087Z,102188.16
2023-08-20T20:38:49.899Z,102186.22
2023-08-20T20:41:17.878Z,102177.44
2023-08-20T20:43:45.650Z,102185.97
2023-08-20T20:46:13.357Z,102180.47
2023-08-20T20:48:42.382Z,102182.69
2023-08-20T20:51:10.054Z,102186.44
2023-08-20T20:53:37.708Z,102196.31
2023-08-20T20:56:05.735Z,102200.59
2023-08-20T20:58:33.476Z,102203.00
2023-08-20T21:01:01.244Z,102187.94
2023-08-20T21:03:28.961Z,102200.81
2023-08-20T21:05:57.958Z,102207.09
2023-08-20T21:08:25.874Z,102203.88
2023-08-20T21:10:53.534Z,102205.09
2023-08-20T21:13:21.653Z,102220.66
2023-08-20T21:15:49.319Z,102216.72
2023-08-20T21:18:17.066Z,102213.75
2023-08-20T21:20:44.793Z,102204.91
2023-08-20T21:23:13.823Z,102207.78
2023-08-20T21:25:41.943Z,102195.94
2023-08-20T21:28:09.652Z,102219.59
2023-08-20T21:30:37.323Z,102210.03
2023-08-20T21:33:05.311Z,102208.19
2023-08-20T21:35:32.981Z,102216.41
2023-08-20T21:38:00.640Z,102219.94
2023-08-20T21:40:29.815Z,102228.53
2023-08-20T21:42:57.541Z,102221.28
2023-08-20T21:45:25.201Z,102218.69
2023-08-20T21:47:52.957Z,102222.00
2023-08-20T21:50:20.662Z,102222.00
2023-08-20T21:52:48.348Z,102228.38
2023-08-20T21:55:16.345Z,102223.88
2023-08-20T21:57:46.759Z,102218.72
2023-08-20T22:00:16.599Z,102227.75
2023-08-20T22:02:45.370Z,102229.28
2023-08-20T22:05:14.349Z,102227.50
2023-08-20T22:07:44.432Z,102199.44
2023-08-20T22:10:12.874Z,102220.28
2023-08-20T22:12:41.073Z,102215.53
2023-08-20T22:15:11.813Z,102217.84
2023-08-20T22:17:39.813Z,102231.13
2023-08-20T22:20:11.068Z,102214.16
2023-08-20T22:22:39.725Z,102213.44
2023-08-20T22:25:08.782Z,102208.81
2023-08-20T22:27:37.179Z,102221.06
2023-08-20T22:30:05.854Z,102205.25
2023-08-20T22:32:35.452Z,102214.75
2023-08-20T22:35:03.465Z,102232.41
2023-08-20T22:37:31.241Z,102229.41
2023-08-20T22:39:58.906Z,102224.34
2023-08-20T22:42:26.523Z,102236.28
2023-08-20T22:44:54.189Z,102221.25
2023-08-20T22:47:22.189Z,102234.16
2023-08-20T22:49:51.440Z,102239.72
2023-08-20T22:52:19.161Z,102221.94
2023-08-20T22:54:46.824Z,102223.97
2023-08-20T22:57:14.484Z,102234.28
2023-08-20T22:59:42.197Z,102228.44
2023-08-20T23:02:09.908Z,102245.34
2023-08-20T23:04:37.659Z,102237.47
2023-08-20T23:07:06.904Z,102240.13
2023-08-20T23:09:34.555Z,102221.94
2023-08-20T23:12:02.251Z,102179.94
2023-08-20T23:14:29.967Z,102199.22
2023-08-20T23:16:57.832Z,102214.50
2023-08-20T23:19:26.882Z,102199.91
2023-08-20T23:21:54.542Z,102173.47
2023-08-20T23:24:23.640Z,102184.25
2023-08-20T23:26:51.315Z,102193.97
2023-08-20T23:29:18.980Z,102198.44
2023-08-20T23:31:47.127Z,102158.19
2023-08-20T23:34:14.814Z,102178.78
2023-08-20T23:36:42.629Z,102170.63
2023-08-20T23:39:10.284Z,102191.59
2023-08-20T23:41:39.274Z,102206.56
2023-08-20T23:44:06.918Z,102177.16
2023-08-20T23:46:47.200Z,102176.72
2023-08-20T23:49:15.791Z,102196.13
2023-08-20T23:51:43.547Z,102173.47
2023-08-20T23:54:11.249Z,102185.91
2023-08-20T23:56:40.326Z,102204.41
2023-08-20T23:59:08.208Z,102186.41
